NCAR-RAP Real-Time Weather Data

Output produced by METARs form (26 May 2022  08:41 UTC)
found at http://weather.rap.ucar.edu/surface/
 
KCYS 260753Z AUTO 30004KT 10SM CLR 08/01 A3007 RMK AO2 SLP130 T00780006
KCYS 260653Z AUTO 31003KT 10SM CLR 08/01 A3007 RMK AO2 SLP131 T00780011 401940022
KCYS 260553Z AUTO 29007KT 10SM CLR 09/02 A3007 RMK AO2 SLP131 T00890017 10194 20089 51013
KCYS 260453Z AUTO 29008KT 10SM CLR 10/02 A3006 RMK AO2 SLP130 T01000017
KCYS 260353Z AUTO 26005KT 10SM CLR 12/01 A3005 RMK AO2 SLP122 T01220011
KCYS 260253Z 04006KT 10SM CLR 14/01 A3002 RMK AO2 SLP113 T01390011 53007
KCYS 260153Z 35009G21KT 10SM CLR 18/M01 A3000 RMK AO2 PK WND 34027/0104 SLP101 T01781006
KCYS 260053Z 34015G31KT 10SM CLR 19/M02 A2999 RMK AO2 PK WND 33031/0047 SLP102 T01891017
KCYS 252353Z 34021G29KT 10SM CLR 19/M01 A3000 RMK AO2 PK WND 34035/2316 SLP108 T01941011 10194 20139 58008
KCYS 252253Z 33020G31KT 10SM CLR 19/M03 A3001 RMK AO2 PK WND 31033/2209 SLP113 T01941033
KCYS 252153Z 33016G30KT 10SM FEW080 19/M04 A3002 RMK AO2 PK WND 32034/2127 SLP116 T01891039
KCYS 252053Z 35018G33KT 10SM CLR 17/M03 A3003 RMK AO2 PK WND 31034/2001 SLP121 T01721028 56015
KCYS 251953Z 33019G33KT 10SM CLR 17/M03 A3004 RMK AO2 PK WND 33033/1947 SLP126 T01671033
KCYS 251853Z 35021G31KT 10SM CLR 16/M03 A3006 RMK AO2 PK WND 35031/1852 SLP134 T01561028
KCYS 251753Z 32018G27KT 10SM CLR 14/M03 A3008 RMK AO2 PK WND 36029/1723 SLP146 T01391028 10139 20028 56004
KCYS 251653Z 31011G21KT 10SM SCT050 13/M01 A3008 RMK AO2 SLP148 T01331011
KCYS 251553Z 34011KT 10SM CLR 12/M01 A3008 RMK AO2 SLP151 T01171011
KCYS 251453Z 33015G21KT 10SM CLR 10/01 A3009 RMK AO2 SLP157 T01000006 51004
KCYS 251353Z 30009KT 10SM CLR 09/02 A3009 RMK AO2 SLP160 T00890022
KCYS 251253Z 31006KT 10SM CLR 05/01 A3009 RMK AO2 SLP170 T00500006
KCYS 251153Z 30006KT 10SM CLR 03/00 A3008 RMK AO2 SLP171 T00280000 10050 20022 51000
KCYS 251053Z AUTO 31006KT 10SM CLR 03/00 A3007 RMK AO2 SLP170 T00280000
KCYS 250953Z AUTO 29007KT 10SM CLR 03/01 A3008 RMK AO2 SLP162 T00280006
KCYS 250853Z AUTO 30007KT 10SM CLR 03/01 A3007 RMK AO2 SLP158 T00330011 55001
KCYS 250753Z AUTO 30006KT 10SM CLR 04/02 A3005 RMK AO2 SLP146 T00390022
KCYS 250653Z AUTO 30004KT 10SM CLR 04/03 A3006 RMK AO2 SLP145 T00440028 401330006
KCYS 250553Z AUTO 28004KT 10SM OVC085 04/02 A3008 RMK AO2 SLP156 T00440022 10072 20044 50001
KCYS 250453Z AUTO 29006KT 10SM CLR 05/02 A3009 RMK AO2 SLP161 T00500022
KCYS 250353Z 28006KT 10SM SCT027 06/03 A3009 RMK AO2 SLP164 T00560028
KCYS 250337Z 29006KT 10SM OVC028 06/03 A3009 RMK AO2 T00610028
KCYS 250253Z 28007KT 10SM CLR 06/03 A3008 RMK AO2 SLP159 T00610028 53014
KCYS 250153Z 26008KT 10SM CLR 07/03 A3005 RMK AO2 SLP155 T00670028
KCYS 250053Z 25005KT 10SM BKN120 07/03 A3004 RMK AO2 SLP157 T00720033
KCYS 242353Z 24007KT 10SM SCT025 BKN040 OVC110 07/04 A3003 RMK AO2 RAB2257E48 SLP162 P0000 60000 T00670039 10133 20061 52009
KCYS 242253Z 22014KT 10SM OVC021 07/03 A3002 RMK AO2 TSB09E24 SLP154 T00720028
KCYS 242227Z 15011KT 10SM OVC023 09/03 A3001 RMK AO2 TSB09E24 T00890033
KCYS 242212Z 14010KT 10SM TS BKN022 BKN034 09/03 A3001 RMK AO2 TSB09 T00940033
KCYS 242206Z 13013KT 10SM VCTS SCT020 BKN034 BKN080 09/04 A3001 RMK AO2 T00940039
KCYS 242153Z 13013KT 10SM FEW036 SCT080 BKN095 11/03 A3001 RMK AO2 LTG DSNT SW SLP136 T01060033
KCYS 242053Z 07014KT 10SM FEW038 SCT045 BKN070 11/02 A3000 RMK AO2 SLP130 T01110017 56008
KCYS 241953Z 08014G20KT 10SM SCT038 BKN060 12/02 A3000 RMK AO2 SLP127 T01170017
KCYS 241853Z 10008KT 10SM BKN040 BKN050 12/01 A3001 RMK AO2 SLP131 T01170006
KCYS 241753Z 05005KT 10SM FEW042 11/M01 A3002 RMK AO2 SLP136 T01111006 10117 20006 56004
KCYS 241653Z 06005KT 10SM CLR 10/00 A3003 RMK AO2 SLP141 T01000000
KCYS 241553Z 00000KT 10SM CLR 09/01 A3003 RMK AO2 SLP143 T00890011
KCYS 241453Z 07003KT 10SM CLR 08/02 A3004 RMK AO2 SLP145 T00780017 57003
KCYS 241353Z 00000KT 10SM CLR 06/02 A3004 RMK AO2 SLP150 T00560017
KCYS 241253Z 00000KT 10SM CLR 03/01 A3004 RMK AO2 SLP156 T00280006
KCYS 241153Z 28006KT 10SM CLR 01/M01 A3005 RMK AO2 SLP158 70031 T00061006 10039 20006 55003
KCYS 241053Z AUTO 27005KT 10SM CLR 01/00 A3004 RMK AO2 SLP156 T00110000
KCYS 241029Z AUTO 30003KT 10SM SCT002 02/01 A3004 RMK AO2 T00170006
KCYS 241017Z AUTO 30004KT 3SM BR BKN002 02/02 A3005 RMK AO2 T00170017
KCYS 241013Z AUTO 30005KT 1SM BR VV002 02/02 A3005 RMK AO2 T00170017 RVRNO
KCYS 240953Z AUTO 31006KT 1/4SM FG VV002 03/02 A3005 RMK AO2 SLP155 T00280022 RVRNO
KCYS 240945Z AUTO 30007KT 1/2SM FG VV002 03/02 A3005 RMK AO2 T00280022 RVRNO
KCYS 240938Z AUTO 30006KT 1/4SM FG VV002 03/02 A3004 RMK AO2 T00280022 RVRNO
KCYS 240909Z AUTO 19004KT 3/4SM BR VV002 03/03 A3006 RMK AO2 T00280028 RVRNO
KCYS 240853Z AUTO 16004KT 1 1/4SM BR OVC002 03/02 A3006 RMK AO2 SLP155 T00280022 55012
KCYS 240843Z AUTO 18005KT 1 3/4SM BR OVC002 03/03 A3006 RMK AO2 T00330028